Latest Weather Observations for Cape Grim

IDT60801

Issued at 7:31 am EST Saturday 30 May 2015 (issued every 30 minutes, with the page automatically refreshed every 10 minutes)

About weather observations | Map of weather stations | Latest weather observations for TAS | Other Formats
Station Details ID: 091331 Name: CAPE GRIM Lat: -40.68 Lon: 144.69 Height: 86.0 m
Data from the previous 72 hours. | See also: Recent months at Cape Grim
Date/Time
EST
Temp
°C
App
Temp
°C
Dew
Point
Rel
Hum
%
Delta-T
°C
Wind Press
QNH
hPa
Press
MSL
hPa
Rain
since 9 am
mm
Dir
 
Spd
km/h
Gust
km/h
Spd
kts
Gust
kts
30/07:30am 13.0 3.0 9.4 79 1.8 WNW 52 78 28 42 1011.5 1011.5 2.0
30/07:00am 12.9 2.6 9.5 80 1.7 WNW 54 72 29 39 1011.6 1011.6 2.0
30/06:30am 12.8 3.2 9.6 81 1.6 WNW 50 69 27 37 1011.8 1011.8 2.0
30/05:59am 12.4 2.4 9.4 82 1.5 WNW 52 72 28 39 1011.9 1011.9 2.0
30/05:30am 11.8 2.2 9.5 86 1.2 WNW 50 63 27 34 1012.2 1012.2 2.0
30/05:05am 12.1 3.0 9.7 85 1.2 WNW 48 67 26 36 1012.3 1012.3 1.8
30/05:00am 12.2 2.3 9.9 86 1.2 WNW 52 65 28 35 1012.5 1012.5 1.8
30/04:40am 12.5 2.5 9.3 81 1.6 WNW 52 72 28 39 1012.5 1012.5 1.6
30/04:30am 12.4 2.7 9.2 81 1.6 WNW 50 61 27 33 1012.6 1012.6 1.6
30/04:00am 12.3 3.5 9.7 84 1.3 WNW 46 61 25 33 1013.0 1013.0 1.6
30/03:30am 12.1 3.3 9.5 84 1.3 WNW 46 57 25 31 1013.4 1013.4 1.0
30/03:04am 11.9 3.0 9.3 84 1.3 WNW 46 65 25 35 1013.6 1013.6 1.0
30/03:00am 12.4 4.2 9.8 84 1.3 WNW 43 59 23 32 1013.7 1013.7 1.0
30/02:32am 11.6 3.1 9.3 86 1.2 WNW 44 65 24 35 1014.1 1014.1 1.0
30/02:30am 11.5 2.6 9.2 86 1.2 WNW 46 61 25 33 1014.1 1014.1 1.0
30/02:16am 11.4 2.7 8.4 82 1.5 WNW 44 65 24 35 1014.2 1014.2 0.8
30/02:00am 12.2 3.3 9.2 82 1.5 WNW 46 61 25 33 1014.4 1014.4 0.8
30/01:30am 11.9 1.9 7.8 76 2.0 WNW 50 69 27 37 1014.6 1014.6 0.8
30/01:28am 12.4 3.2 8.1 75 2.1 WNW 46 69 25 37 1014.6 1014.6 0.8
30/01:00am 12.7 3.6 8.4 75 2.1 WNW 46 57 25 31 1015.0 1015.0 0.8
30/12:30am 12.6 3.1 8.3 75 2.1 WNW 48 59 26 32 1015.3 1015.4 0.8
30/12:00am 12.4 3.8 8.1 75 2.1 WNW 43 52 23 28 1015.6 1015.8 0.8
 
Date/Time
EST
Temp
°C
App
Temp
°C
Dew
Point
Rel
Hum
%
Delta-T
°C
Wind Press
QNH
hPa
Press
MSL
hPa
Rain
since 9 am
mm
Dir
 
Spd
km/h
Gust
km/h
Spd
kts
Gust
kts
29/11:30pm 12.2 2.9 7.7 74 2.2 WNW 46 61 25 33 1015.9 1016.0 0.8
29/11:00pm 12.4 3.2 7.9 74 2.2 WNW 46 56 25 30 1016.0 1016.1 0.8
29/10:30pm 12.4 3.6 7.9 74 2.2 WNW 44 63 24 34 1016.1 1016.2 0.8
29/10:24pm 12.2 3.2 7.3 72 2.4 WNW 44 63 24 34 1016.2 1016.3 0.8
29/10:00pm 12.4 3.1 7.7 73 2.3 WNW 46 57 25 31 1016.4 1016.5 0.8
29/09:30pm 12.3 3.4 7.6 73 2.3 WNW 44 57 24 31 1016.4 1016.5 0.8
29/09:00pm 12.0 3.0 7.3 73 2.3 WNW 44 57 24 31 1016.4 1016.5 0.8
29/08:30pm 12.0 2.5 6.9 71 2.4 WNW 46 59 25 32 1016.5 1016.6 0.8
29/08:00pm 12.0 2.6 7.3 73 2.3 WNW 46 61 25 33 1016.6 1016.7 0.8
29/07:30pm 12.1 2.8 7.6 74 2.2 WNW 46 56 25 30 1016.7 1016.8 0.8
29/07:00pm 11.9 2.5 7.2 73 2.3 WNW 46 59 25 32 1016.6 1016.7 0.8
29/06:30pm 11.8 2.4 7.3 74 2.2 WNW 46 57 25 31 1016.4 1016.5 0.8
29/06:00pm 12.0 3.3 7.5 74 2.2 W 43 52 23 28 1016.2 1016.4 0.8
29/05:30pm 11.9 3.1 7.2 73 2.3 W 43 56 23 30 1016.0 1016.1 0.8
29/05:00pm 11.9 3.6 7.6 75 2.1 W 41 50 22 27 1015.9 1016.0 0.8
29/04:30pm 11.6 3.2 7.5 76 2.0 W 41 50 22 27 1016.1 1016.2 0.8
29/04:00pm 11.2 3.1 7.1 76 2.0 W 39 54 21 29 1016.0 1016.1 0.8
29/03:30pm 11.3 2.4 7.0 75 2.1 W 43 63 23 34 1015.7 1015.8 0.6
29/03:20pm 12.0 4.9 6.5 69 2.6 W 33 54 18 29 1015.7 1015.8 0.6
29/03:00pm 11.6 3.8 6.7 72 2.3 W 37 50 20 27 1015.9 1016.0 0.6
29/02:30pm 11.5 3.8 7.2 75 2.1 W 37 50 20 27 1015.7 1015.8 0.6
29/02:09pm 11.9 4.0 8.0 77 1.9 W 39 57 21 31 1015.6 1015.7 0.4
29/02:00pm 11.4 3.5 7.7 78 1.8 W 39 56 21 30 1015.8 1015.9 0.4
29/01:30pm 10.5 1.7 7.4 81 1.5 W 43 59 23 32 1015.9 1016.0 0.4
29/01:03pm 10.6 4.3 7.3 80 1.6 W 30 48 16 26 1016.1 1016.2 0.2
29/01:00pm 10.8 4.4 7.1 78 1.8 W 30 48 16 26 1016.1 1016.2 0.2
29/12:30pm 11.9 2.8 7.0 72 2.4 W 44 67 24 36 1016.0 1016.1 0.0
29/12:29pm 12.0 2.8 6.5 69 2.6 W 44 67 24 36 1016.0 1016.1 0.0
29/12:00pm 11.9 2.9 6.6 70 2.5 W 43 57 23 31 1016.2 1016.3 0.0
29/11:49am 11.3 4.5 6.8 74 2.1 W 32 56 17 30 1016.3 1016.4 0.0
29/11:30am 11.1 3.4 7.0 76 2.0 W 37 50 20 27 1016.5 1016.6 0.0
29/11:15am 11.7 3.1 6.6 71 2.4 W 41 63 22 34 1016.5 1016.6 0.0
29/11:00am 11.6 2.7 5.0 64 3.0 W 41 54 22 29 1016.6 1016.7 0.0
29/10:30am 12.0 3.4 6.5 69 2.6 WNW 41 50 22 27 1016.5 1016.6 0.0
29/10:01am 11.6 3.9 5.5 66 2.8 W 35 54 19 29 1016.5 1016.6 0.0
29/10:00am 11.6 4.3 5.5 66 2.8 W 33 50 18 27 1016.4 1016.5 0.0
29/09:30am 11.3 3.6 5.4 67 2.7 W 35 54 19 29 1016.4 1016.5 0.0
29/09:00am 11.4 3.9 4.6 63 3.1 W 33 52 18 28 1016.1 1016.2 7.0
29/08:58am 11.3 3.8 4.3 62 3.2 W 33 52 18 28 1016.1 1016.2 7.0
29/08:30am 11.1 2.8 4.3 63 3.1 W 37 54 20 29 1015.8 1015.9 7.0
29/08:03am 11.0 3.6 5.1 67 2.7 W 33 52 18 28 1015.7 1015.8 7.0
29/08:00am 11.0 3.6 5.1 67 2.7 W 33 50 18 27 1015.7 1015.8 7.0
29/07:34am 11.0 4.0 4.2 63 3.1 W 30 54 16 29 1015.4 1015.5 7.0
29/07:30am 11.0 3.6 4.2 63 3.1 W 32 46 17 25 1015.3 1015.4 7.0
29/07:00am 10.9 2.9 3.7 61 3.2 W 35 59 19 32 1014.9 1014.9 7.0
29/06:30am 11.0 1.8 5.3 68 2.6 W 43 61 23 33 1014.5 1014.5 7.0
29/06:00am 10.2 1.2 4.6 68 2.5 W 41 63 22 34 1013.9 1013.9 7.0
29/05:30am 10.8 1.8 4.3 64 2.9 W 41 65 22 35 1013.5 1013.5 6.8
29/05:00am 10.3 1.4 5.3 71 2.3 W 41 59 22 32 1013.4 1013.4 6.8
29/04:30am 10.9 1.0 5.0 67 2.7 W 46 65 25 35 1013.0 1013.0 6.8
29/04:00am 10.8 1.4 4.7 66 2.8 W 43 63 23 34 1012.8 1012.8 6.8
29/03:31am 10.6 1.8 5.4 70 2.4 W 41 59 22 32 1012.7 1012.7 6.8
29/03:30am 10.7 1.5 5.5 70 2.4 W 43 59 23 32 1012.6 1012.6 6.8
29/03:00am 9.5 1.9 5.7 77 1.7 W 35 56 19 30 1012.5 1012.5 6.8
29/02:30am 10.6 2.2 5.8 72 2.2 W 39 61 21 33 1012.2 1012.2 6.8
29/02:00am 11.0 0.7 4.9 66 2.8 W 48 70 26 38 1011.9 1011.9 6.8
29/01:30am 11.0 1.2 5.1 67 2.7 W 46 67 25 36 1011.4 1011.4 6.8
29/01:00am 10.9 0.5 4.1 63 3.0 W 48 72 26 39 1011.4 1011.4 6.8
29/12:30am 10.7 0.2 5.5 70 2.4 W 50 72 27 39 1011.4 1011.4 6.8
29/12:29am 10.8 0.3 5.6 70 2.4 W 50 72 27 39 1011.4 1011.4 6.8
29/12:28am 10.7 0.1 5.3 69 2.5 W 50 72 27 39 1011.4 1011.4 6.8
29/12:00am 10.2 -2.4 5.4 72 2.2 W 61 83 33 45 1011.3 1011.3 6.8
 
Date/Time
EST
Temp
°C
App
Temp
°C
Dew
Point
Rel
Hum
%
Delta-T
°C
Wind Press
QNH
hPa
Press
MSL
hPa
Rain
since 9 am
mm
Dir
 
Spd
km/h
Gust
km/h
Spd
kts
Gust
kts
28/11:57pm 9.8 -2.6 4.6 70 2.3 W 59 83 32 45 1011.3 1011.3 6.8
28/11:56pm 10.1 -2.3 4.9 70 2.4 W 59 83 32 45 1011.3 1011.3 6.8
28/11:30pm 9.3 -0.3 6.2 81 1.4 W 46 69 25 37 1011.3 1011.3 6.8
28/11:19pm 8.8 -0.8 6.1 83 1.2 W 46 76 25 41 1011.1 1011.1 6.6
28/11:18pm 9.1 -0.1 6.4 83 1.3 W 44 76 24 41 1011.2 1011.2 6.6
28/11:16pm 9.8 1.2 6.7 81 1.5 W 41 67 22 36 1011.3 1011.3 6.0
28/11:00pm 8.9 -1.4 6.3 84 1.2 W 50 76 27 41 1011.3 1011.3 5.8
28/10:51pm 8.6 -5.1 5.9 83 1.2 W 67 106 36 57 1011.4 1011.4 5.8
28/10:47pm 9.0 -3.7 5.0 76 1.8 W 61 106 33 57 1010.6 1010.6 5.4
28/10:46pm 9.9 -1.9 5.5 74 2.0 W 57 106 31 57 1010.8 1010.8 5.0
28/10:30pm 11.0 0.5 5.5 69 2.5 W 50 69 27 37 1011.0 1011.0 5.0
28/10:00pm 10.7 1.0 5.7 71 2.3 W 46 67 25 36 1010.9 1010.9 5.0
28/09:30pm 11.0 2.0 6.4 73 2.2 W 43 61 23 33 1010.9 1010.9 5.0
28/09:00pm 11.8 2.1 5.9 67 2.8 W 46 65 25 35 1010.6 1010.6 4.8
28/08:32pm 11.8 1.6 5.4 65 3.0 W 48 67 26 36 1010.4 1010.4 4.8
28/08:30pm 11.8 1.1 4.8 62 3.2 W 50 67 27 36 1010.4 1010.4 4.8
28/08:00pm 11.9 3.6 6.0 67 2.8 W 39 57 21 31 1010.4 1010.4 4.8
28/07:30pm 11.8 2.5 5.9 67 2.8 W 44 63 24 34 1010.1 1010.1 4.8
28/07:00pm 12.0 1.7 6.7 70 2.5 W 50 69 27 37 1009.9 1009.9 4.8
28/06:30pm 11.7 3.3 7.4 75 2.1 W 41 63 22 34 1009.7 1009.7 4.8
28/06:10pm 11.2 1.3 8.2 82 1.5 W 50 69 27 37 1009.7 1009.7 4.8
28/06:00pm 11.5 1.4 7.6 77 1.9 WNW 50 63 27 34 1009.5 1009.5 4.6
28/05:30pm 12.2 3.0 8.1 76 2.0 W 46 61 25 33 1009.3 1009.3 4.6
28/05:00pm 11.8 5.0 9.2 84 1.3 W 35 46 19 25 1009.0 1009.0 4.6
28/04:30pm 11.5 6.0 9.2 86 1.2 W 28 46 15 25 1008.7 1008.7 4.6
28/04:24pm 11.5 5.1 9.2 86 1.2 W 33 48 18 26 1008.7 1008.7 4.6
28/04:00pm 11.1 4.9 9.5 90 0.8 WSW 32 52 17 28 1008.5 1008.5 4.6
28/03:47pm 11.1 3.6 9.4 89 0.9 WSW 39 61 21 33 1008.3 1008.3 4.6
28/03:44pm 11.5 3.3 9.8 89 0.9 W 43 61 23 33 1008.1 1008.1 4.6
28/03:30pm 11.9 2.8 10.0 88 1.0 W 48 69 26 37 1007.8 1007.8 4.6
28/03:26pm 12.0 2.6 10.1 88 1.0 WNW 50 69 27 37 1007.9 1007.9 4.6
28/03:00pm 12.7 3.4 10.4 86 1.2 WNW 50 61 27 33 1007.8 1007.8 3.4
28/02:30pm 13.7 3.1 10.5 81 1.7 NW 57 74 31 40 1007.7 1007.7 3.4
28/02:12pm 13.6 5.7 11.3 86 1.2 NW 44 65 24 35 1007.7 1007.7 3.4
28/02:00pm 13.7 6.7 11.2 85 1.3 NW 39 52 21 28 1008.0 1008.0 2.8
28/01:42pm 13.8 6.0 11.3 85 1.3 NW 43 61 23 33 1008.0 1008.0 2.8
28/01:30pm 13.3 5.3 11.2 87 1.1 NW 44 61 24 33 1008.2 1008.2 2.8
28/01:28pm 13.2 5.4 11.1 87 1.1 NW 43 61 23 33 1008.3 1008.3 2.8
28/01:00pm 11.9 3.7 10.3 90 0.8 NW 44 61 24 33 1009.0 1009.0 2.8
28/12:32pm 13.3 7.0 11.0 86 1.2 NW 35 56 19 30 1009.4 1009.4 1.8
28/12:30pm 13.3 7.0 11.0 86 1.2 NW 35 46 19 25 1009.4 1009.4 1.8
28/12:00pm 13.3 6.6 11.0 86 1.2 NW 37 52 20 28 1009.5 1009.5 1.8
28/11:30am 13.9 6.0 11.4 85 1.3 NW 44 57 24 31 1010.2 1010.2 1.8
28/11:18am 13.6 6.2 11.1 85 1.3 NW 41 61 22 33 1010.3 1010.3 1.8
28/11:00am 13.3 6.7 11.5 89 1.0 NW 37 50 20 27 1010.6 1010.6 1.8
28/10:30am 11.7 0.1 9.9 89 0.9 NW 61 98 33 53 1010.7 1010.7 1.8
28/10:27am 11.5 -0.5 9.6 88 1.0 NW 63 98 34 53 1010.6 1010.6 1.8
28/10:25am 11.4 -0.3 9.3 87 1.1 NW 61 98 33 53 1010.7 1010.7 1.4
28/10:21am 12.1 2.2 9.7 85 1.2 NNW 52 96 28 52 1010.5 1010.5 1.0
28/10:20am 12.9 4.0 10.6 86 1.2 NNW 48 96 26 52 1010.5 1010.5 0.6
28/10:18am 13.7 6.1 11.7 88 1.1 NNW 43 63 23 34 1010.4 1010.4 0.4
28/10:00am 14.1 7.3 12.1 88 1.1 NNW 39 50 21 27 1010.5 1010.5 0.0
28/09:30am 13.6 5.7 11.5 87 1.1 NNW 44 56 24 30 1010.8 1010.8 0.0
28/09:00am 13.9 6.3 11.9 88 1.1 NNW 43 54 23 29 1011.1 1011.1 11.8
28/08:30am 13.5 4.2 11.7 89 1.0 NNW 52 65 28 35 1011.2 1011.2 11.8
28/08:00am 13.5 6.8 12.2 92 0.7 N 39 61 21 33 1010.7 1010.7 11.8
28/07:59am 13.4 6.6 12.1 92 0.7 N 39 61 21 33 1010.7 1010.7 11.8
28/07:30am 13.1 8.3 11.8 92 0.7 N 28 37 15 20 1011.4 1011.4 11.8
28/07:00am 12.9 8.1 11.5 91 0.7 NNW 28 33 15 18 1011.8 1011.8 11.8
28/06:30am 13.1 7.2 11.3 89 1.0 NW 33 48 18 26 1011.9 1011.9 11.8
28/06:00am 12.5 6.6 11.1 91 0.7 NNW 33 39 18 21 1011.9 1011.9 11.8
28/05:30am 12.5 7.9 11.1 91 0.7 NNW 26 33 14 18 1011.8 1011.8 11.8
28/05:00am 12.5 7.2 11.1 91 0.7 NNW 30 35 16 19 1012.1 1012.1 11.8
28/04:30am 12.4 7.8 11.0 91 0.7 NW 26 33 14 18 1012.3 1012.3 11.8
28/04:00am 12.3 7.7 10.9 91 0.7 NW 26 32 14 17 1012.5 1012.5 11.4
28/03:30am 12.3 7.7 10.9 91 0.7 NW 26 39 14 21 1012.5 1012.5 11.4
28/03:21am 12.2 6.8 10.9 92 0.7 NW 30 44 16 24 1012.6 1012.6 11.4
28/03:11am 11.7 6.5 10.3 91 0.7 W 28 39 15 21 1012.8 1012.8 10.2
28/03:00am 12.5 8.7 11.2 92 0.7 WNW 22 28 12 15 1012.8 1012.8 4.8
28/02:30am 12.6 9.2 11.2 91 0.7 NW 20 26 11 14 1013.2 1013.2 3.4
28/02:00am 12.8 7.2 11.4 91 0.7 WNW 32 43 17 23 1013.3 1013.3 3.4
28/01:30am 12.9 7.7 11.6 92 0.7 NNW 30 35 16 19 1013.6 1013.6 3.2
28/01:00am 12.6 9.2 11.3 92 0.7 NW 20 28 11 15 1013.5 1013.5 3.2
28/12:30am 12.4 7.8 11.1 92 0.7 NW 26 32 14 17 1013.9 1013.9 3.2
28/12:00am 11.8 7.4 10.5 92 0.7 WNW 24 33 13 18 1013.9 1013.9 3.2
 
Date/Time
EST
Temp
°C
App
Temp
°C
Dew
Point
Rel
Hum
%
Delta-T
°C
Wind Press
QNH
hPa
Press
MSL
hPa
Rain
since 9 am
mm
Dir
 
Spd
km/h
Gust
km/h
Spd
kts
Gust
kts
27/11:30pm 11.5 3.8 10.2 92 0.7 WNW 41 50 22 27 1014.5 1014.5 2.6
27/11:20pm 12.0 5.9 10.4 90 0.8 NW 33 57 18 31 1014.5 1014.5 2.4
27/11:18pm 12.8 7.5 11.4 91 0.7 NW 30 48 16 26 1014.5 1014.5 2.2
27/11:00pm 12.8 7.9 11.4 91 0.7 NW 28 35 15 19 1014.2 1014.2 1.8
27/10:30pm 13.2 8.4 11.6 90 0.9 NNW 28 33 15 18 1014.3 1014.3 1.4
27/10:00pm 13.3 8.5 11.7 90 0.9 NNW 28 35 15 19 1014.6 1014.6 1.4
27/09:30pm 13.5 9.5 11.7 89 1.0 NW 24 32 13 17 1014.6 1014.6 1.4
27/09:00pm 13.2 8.8 11.6 90 0.9 NW 26 35 14 19 1014.7 1014.7 1.4
27/08:30pm 13.2 8.0 11.6 90 0.9 NNW 30 39 16 21 1014.9 1014.9 1.4
27/08:00pm 12.9 7.0 11.3 90 0.8 NW 33 50 18 27 1014.9 1014.9 1.4
27/07:46pm 12.8 7.2 11.4 91 0.7 NW 32 50 17 27 1014.9 1014.9 1.4
27/07:30pm 12.3 5.6 10.9 91 0.7 NW 37 54 20 29 1014.8 1014.8 1.4
27/07:14pm 13.5 6.7 11.9 90 0.9 NNW 39 52 21 28 1014.7 1014.7 1.0
27/07:00pm 13.6 8.1 12.0 90 0.9 NNW 32 41 17 22 1014.4 1014.4 0.0
27/06:30pm 13.5 8.4 11.9 90 0.9 N 30 39 16 21 1014.2 1014.2 0.0
27/06:00pm 13.4 8.3 11.8 90 0.9 NNW 30 35 16 19 1014.2 1014.2 0.0
27/05:30pm 13.4 9.0 11.8 90 0.9 NNW 26 33 14 18 1014.2 1014.2 0.0
27/05:00pm 13.4 9.3 11.6 89 1.0 N 24 30 13 16 1014.1 1014.1 0.0
27/04:30pm 13.4 9.3 11.6 89 1.0 NNW 24 30 13 16 1014.2 1014.2 0.0
27/04:00pm 13.7 9.6 11.6 87 1.1 NNW 24 30 13 16 1014.3 1014.3 0.0
27/03:30pm 14.1 9.3 11.8 86 1.2 N 28 37 15 20 1014.3 1014.3 0.0
27/03:00pm 14.3 9.5 11.8 85 1.3 NNW 28 35 15 19 1014.4 1014.4 0.0
27/02:30pm 14.4 9.2 11.7 84 1.5 NNW 30 39 16 21 1014.4 1014.4 0.0
27/02:00pm 14.7 10.4 12.0 84 1.5 NNW 26 35 14 19 1014.5 1014.5 0.0
27/01:30pm 14.5 9.0 11.8 84 1.5 N 32 39 17 21 1014.8 1014.8 0.0
27/01:00pm 14.6 9.1 11.9 84 1.5 N 32 39 17 21 1015.2 1015.2 0.0
27/12:30pm 13.8 8.1 11.1 84 1.4 N 32 41 17 22 1015.6 1015.7 0.0
27/12:00pm 13.8 7.6 11.3 85 1.3 N 35 46 19 25 1016.1 1016.2 0.0
27/11:30am 13.7 6.7 11.4 86 1.2 N 39 50 21 27 1016.3 1016.4 0.0
27/11:00am 13.4 5.6 11.3 87 1.1 N 43 50 23 27 1016.6 1016.7 0.0
27/10:30am 13.2 6.2 11.4 89 1.0 N 39 46 21 25 1016.8 1016.9 0.0
27/10:00am 13.4 6.6 11.8 90 0.9 N 39 50 21 27 1016.7 1016.8 0.0
27/09:30am 13.2 7.5 11.9 92 0.7 N 33 41 18 22 1017.0 1017.1 0.0
27/09:00am 12.8 7.2 11.5 92 0.7 N 32 37 17 20 1017.2 1017.3 0.8
27/08:30am 12.7 7.4 11.3 91 0.7 N 30 39 16 21 1017.1 1017.2 0.8
27/08:00am 12.6 6.9 11.3 92 0.7 N 32 37 17 20 1017.0 1017.1 0.8

Other Formats:

Comma delimited format used in spreadsheet applications
http://www.bom.gov.au/fwo/IDT60801/IDT60801.95954.axf

JavaScript Object Notation format (JSON) in row-major order
http://www.bom.gov.au/fwo/IDT60801/IDT60801.95954.json